Time;durP1;ratioP1;P1;durP2;ratioP2;P2;SDS_P1;SDS_P2;PMS_P1;PMS_P2;Temp;Humidity;BMP_temperature;BMP_pressure;BME280_temperature;BME280_humidity;BME280_pressure;Samples;Min_cycle;Max_cycle;Signal;HPM_P1;HPM_P2
2024/01/26 00:01:39;;;;;;;29.08;11.57;;;11.00;99.90;;;;;;5094344;28;20080;-65
2024/01/26 00:04:05;;;;;;;27.52;12.15;;;11.00;99.90;;;;;;5094634;28;20027;-66
2024/01/26 00:06:31;;;;;;;29.30;11.60;;;11.00;99.90;;;;;;5094792;28;20032;-65
2024/01/26 00:09:06;;;;;;;27.48;11.77;;;11.00;99.90;;;;;;5094794;28;20025;-65
2024/01/26 00:11:32;;;;;;;31.73;10.95;;;11.00;99.90;;;;;;5094603;28;20104;-65
2024/01/26 00:13:57;;;;;;;25.48;10.50;;;11.00;99.90;;;;;;5094658;28;20029;-65
2024/01/26 00:16:23;;;;;;;26.52;11.70;;;11.00;99.90;;;;;;5094376;28;20111;-65
2024/01/26 00:18:48;;;;;;;29.83;12.65;;;11.00;99.90;;;;;;5094474;28;20029;-65
2024/01/26 00:21:16;;;;;;;28.67;12.05;;;11.00;99.90;;;;;;5094443;28;20031;-65
2024/01/26 00:23:41;;;;;;;26.35;11.68;;;11.00;99.90;;;;;;5094492;28;20017;-65
2024/01/26 00:26:07;;;;;;;27.70;12.75;;;11.00;99.90;;;;;;5094450;28;20092;-66
2024/01/26 00:28:32;;;;;;;28.80;11.88;;;11.00;99.90;;;;;;5094353;28;20090;-66
2024/01/26 00:30:58;;;;;;;29.92;12.18;;;11.00;99.90;;;;;;5094274;28;20044;-65
2024/01/26 00:33:23;;;;;;;25.08;11.85;;;11.00;99.90;;;;;;5094158;28;20029;-66
2024/01/26 00:35:49;;;;;;;24.23;10.82;;;11.00;99.90;;;;;;5094272;28;20093;-65
2024/01/26 00:38:15;;;;;;;24.75;11.68;;;11.00;99.90;;;;;;5094113;28;20025;-65
2024/01/26 00:40:40;;;;;;;25.70;11.43;;;11.00;99.90;;;;;;5094103;28;20039;-65
2024/01/26 00:43:06;;;;;;;24.88;10.77;;;11.00;99.90;;;;;;5094072;28;20020;-65
2024/01/26 00:45:31;;;;;;;26.63;11.50;;;11.00;99.90;;;;;;5094034;28;20059;-65
2024/01/26 00:47:57;;;;;;;24.40;10.77;;;11.00;99.90;;;;;;5094015;28;20046;-65
2024/01/26 00:50:23;;;;;;;26.55;11.52;;;11.00;99.90;;;;;;5093946;28;20041;-65
2024/01/26 00:52:49;;;;;;;26.00;11.05;;;11.00;99.90;;;;;;5093808;28;20025;-66
2024/01/26 00:55:14;;;;;;;24.52;11.25;;;11.00;99.90;;;;;;5093898;28;20524;-66
2024/01/26 00:57:40;;;;;;;25.80;11.35;;;11.00;99.90;;;;;;5093721;28;20039;-65
2024/01/26 01:00:07;;;;;;;29.25;11.55;;;11.00;99.90;;;;;;5093672;28;20020;-65
2024/01/26 01:02:33;;;;;;;23.90;10.77;;;11.00;99.90;;;;;;5093646;28;20041;-65
2024/01/26 01:05:00;;;;;;;29.42;11.52;;;11.10;99.90;;;;;;5093446;28;20035;-65
2024/01/26 01:07:25;;;;;;;20.92;9.98;;;11.10;99.90;;;;;;5093571;28;20063;-65
2024/01/26 01:09:51;;;;;;;27.92;10.35;;;11.10;99.90;;;;;;5093496;28;20036;-66
2024/01/26 01:12:17;;;;;;;22.90;10.82;;;11.10;99.90;;;;;;5091660;28;20040;-65
2024/01/26 01:14:44;;;;;;;25.38;10.50;;;11.10;99.90;;;;;;5093483;28;20042;-65
2024/01/26 01:17:11;;;;;;;25.63;10.75;;;11.10;99.90;;;;;;5093290;28;20029;-65
2024/01/26 01:19:37;;;;;;;20.15;9.85;;;11.10;99.90;;;;;;5093386;28;20070;-65
2024/01/26 01:22:03;;;;;;;19.75;9.88;;;11.10;99.90;;;;;;5093290;28;20016;-65
2024/01/26 01:24:28;;;;;;;23.25;10.40;;;11.10;99.90;;;;;;5093275;28;20021;-65
2024/01/26 01:26:54;;;;;;;25.48;10.85;;;11.10;99.90;;;;;;5093100;28;20032;-65
2024/01/26 01:29:19;;;;;;;26.83;11.10;;;11.10;99.90;;;;;;5093097;28;20036;-65
2024/01/26 01:31:45;;;;;;;26.65;10.60;;;11.10;99.90;;;;;;5093154;28;20059;-65
2024/01/26 01:34:10;;;;;;;23.23;11.25;;;11.10;99.90;;;;;;5092970;28;20021;-65
2024/01/26 01:36:36;;;;;;;19.83;9.75;;;11.10;99.90;;;;;;5092966;28;20549;-65
2024/01/26 01:39:02;;;;;;;25.50;11.18;;;11.10;99.90;;;;;;5092992;28;20032;-65
2024/01/26 01:41:27;;;;;;;22.55;10.35;;;11.10;99.90;;;;;;5092994;28;20093;-65
2024/01/26 01:43:56;;;;;;;20.92;9.75;;;11.10;99.90;;;;;;5092884;28;20033;-66
2024/01/26 01:46:22;;;;;;;20.45;10.27;;;11.10;99.90;;;;;;5092936;28;20020;-65
2024/01/26 01:48:49;;;;;;;20.30;10.57;;;11.10;99.90;;;;;;5092837;28;20032;-66
2024/01/26 01:51:15;;;;;;;20.00;9.60;;;11.10;99.90;;;;;;5092778;28;20051;-66
2024/01/26 01:53:41;;;;;;;21.38;9.27;;;11.10;99.90;;;;;;5092748;28;20029;-65
2024/01/26 01:56:11;;;;;;;18.35;9.02;;;11.10;99.90;;;;;;5092648;28;20152;-66
2024/01/26 01:58:39;;;;;;;15.82;7.95;;;11.10;99.90;;;;;;5092652;28;20392;-66
2024/01/26 02:01:05;;;;;;;15.27;8.13;;;11.10;99.90;;;;;;5092710;28;20032;-65
2024/01/26 02:03:31;;;;;;;17.60;8.10;;;11.10;99.90;;;;;;5092442;28;20025;-65
2024/01/26 02:05:57;;;;;;;17.67;7.70;;;11.10;99.90;;;;;;5092665;28;20020;-65
2024/01/26 02:08:23;;;;;;;19.80;8.13;;;11.10;99.90;;;;;;5092560;28;20048;-65
2024/01/26 02:10:48;;;;;;;14.38;7.43;;;11.10;99.90;;;;;;5092422;28;20044;-66
2024/01/26 02:13:14;;;;;;;12.75;6.72;;;11.20;99.90;;;;;;5074853;28;20487;-65
2024/01/26 02:15:40;;;;;;;15.77;7.03;;;11.20;99.90;;;;;;5092518;28;20049;-66
2024/01/26 02:18:05;;;;;;;12.73;6.10;;;11.20;99.90;;;;;;5092434;28;20041;-66
2024/01/26 02:20:31;;;;;;;13.48;6.88;;;11.20;99.90;;;;;;5092387;28;20032;-67
2024/01/26 02:22:57;;;;;;;13.02;5.90;;;11.10;99.90;;;;;;5092310;28;20020;-65
2024/01/26 02:25:23;;;;;;;12.75;6.60;;;11.20;99.90;;;;;;5092408;28;20035;-65
2024/01/26 02:27:52;;;;;;;11.65;5.80;;;11.20;99.90;;;;;;5092404;28;20016;-65
2024/01/26 02:30:18;;;;;;;10.30;5.45;;;11.20;99.90;;;;;;5092369;28;20020;-65
2024/01/26 02:32:43;;;;;;;11.52;5.80;;;11.20;99.90;;;;;;5092402;28;20044;-65
2024/01/26 02:35:10;;;;;;;12.13;5.95;;;11.10;99.90;;;;;;5092219;28;20040;-65
2024/01/26 02:37:36;;;;;;;9.52;5.55;;;11.20;99.90;;;;;;5092214;28;20025;-65
2024/01/26 02:40:01;;;;;;;9.60;5.45;;;11.10;99.90;;;;;;5092385;28;20024;-65
2024/01/26 02:42:27;;;;;;;8.88;5.15;;;11.20;99.90;;;;;;5091275;28;20027;-66
2024/01/26 02:44:53;;;;;;;8.35;4.57;;;11.20;99.90;;;;;;5092281;28;20035;-65
2024/01/26 02:47:18;;;;;;;8.95;4.90;;;11.20;99.90;;;;;;5092209;28;20021;-65
2024/01/26 02:49:44;;;;;;;9.95;4.70;;;11.20;99.90;;;;;;5092195;28;20066;-65
2024/01/26 02:52:10;;;;;;;8.02;4.38;;;11.20;99.90;;;;;;5092055;28;20039;-65
2024/01/26 02:54:35;;;;;;;10.38;4.38;;;11.20;99.90;;;;;;5092021;28;20028;-65
2024/01/26 02:57:01;;;;;;;8.70;4.90;;;11.20;99.90;;;;;;5091991;28;20039;-65
2024/01/26 02:59:26;;;;;;;8.23;4.53;;;11.20;99.90;;;;;;5092098;28;20021;-66
2024/01/26 03:01:52;;;;;;;8.80;4.72;;;11.20;99.90;;;;;;5091982;28;20031;-66
2024/01/26 03:04:21;;;;;;;8.43;4.43;;;11.20;99.90;;;;;;5091816;28;20032;-65
2024/01/26 03:06:47;;;;;;;7.38;4.38;;;11.20;99.90;;;;;;5091944;28;20059;-66
2024/01/26 03:09:13;;;;;;;8.48;4.72;;;11.20;99.90;;;;;;5091821;28;20052;-65
2024/01/26 03:11:40;;;;;;;8.77;4.05;;;11.20;99.90;;;;;;5091900;28;20052;-65
2024/01/26 03:14:06;;;;;;;7.30;4.20;;;11.20;99.90;;;;;;5091987;28;20052;-66
2024/01/26 03:16:39;;;;;;;7.72;4.25;;;11.10;99.90;;;;;;5091863;28;20025;-65
2024/01/26 03:19:04;;;;;;;;;;;11.20;99.90;;;;;;5092385;28;20059;-66
2024/01/26 03:21:30;;;;;;;9.15;3.97;;;11.20;99.90;;;;;;5091849;28;19904;-66
2024/01/26 03:23:55;;;;;;;7.30;3.88;;;11.20;99.90;;;;;;5091794;28;20043;-66
2024/01/26 03:26:21;;;;;;;7.68;3.60;;;11.20;99.90;;;;;;5091935;28;20047;-65
2024/01/26 03:28:47;;;;;;;6.53;3.92;;;11.20;99.90;;;;;;5091919;28;20060;-65
2024/01/26 03:31:13;;;;;;;6.30;3.72;;;11.20;99.90;;;;;;5091837;28;20039;-66
2024/01/26 03:33:40;;;;;;;7.95;4.15;;;11.20;99.90;;;;;;5091526;28;20016;-65
2024/01/26 03:36:06;;;;;;;6.65;3.67;;;11.20;99.90;;;;;;5093395;28;20048;-66
2024/01/26 03:38:32;;;;;;;7.35;4.22;;;11.20;99.90;;;;;;5095145;28;20025;-65
2024/01/26 03:40:58;;;;;;;6.60;3.42;;;11.20;99.90;;;;;;5095383;28;20047;-67
2024/01/26 03:43:23;;;;;;;6.25;3.30;;;11.20;99.90;;;;;;5095231;28;20027;-66
2024/01/26 03:45:49;;;;;;;7.35;4.32;;;11.20;99.90;;;;;;5095193;28;20029;-65
2024/01/26 03:48:15;;;;;;;5.85;3.20;;;11.20;99.90;;;;;;5094134;28;20051;-66
2024/01/26 03:50:40;;;;;;;6.88;3.85;;;11.20;99.90;;;;;;5094890;28;20040;-66
2024/01/26 03:53:06;;;;;;;7.63;4.30;;;11.20;99.90;;;;;;5095000;28;20036;-65
2024/01/26 03:55:31;;;;;;;7.07;3.70;;;11.20;99.90;;;;;;5094950;28;20024;-65
2024/01/26 03:57:57;;;;;;;6.95;3.60;;;11.20;99.90;;;;;;5094718;28;20487;-66
2024/01/26 04:00:22;;;;;;;10.57;4.22;;;11.20;99.90;;;;;;5094758;28;20028;-65
2024/01/26 04:02:48;;;;;;;11.57;3.72;;;11.20;99.90;;;;;;5094602;28;20044;-66
2024/01/26 04:05:14;;;;;;;10.25;3.83;;;11.20;99.90;;;;;;5094762;28;20061;-65
2024/01/26 04:07:39;;;;;;;7.85;4.05;;;11.20;99.90;;;;;;5094682;28;20025;-66
2024/01/26 04:10:06;;;;;;;7.95;4.28;;;11.30;99.90;;;;;;5094580;28;20047;-66
2024/01/26 04:12:33;;;;;;;13.10;4.35;;;11.20;99.90;;;;;;5094743;28;20062;-65
2024/01/26 04:14:58;;;;;;;7.32;4.07;;;11.20;99.90;;;;;;5094659;28;20024;-66
2024/01/26 04:17:24;;;;;;;11.23;4.50;;;11.30;99.90;;;;;;5094499;28;20115;-65
2024/01/26 04:19:49;;;;;;;6.85;3.72;;;11.20;99.90;;;;;;5094459;28;20031;-66
2024/01/26 04:22:15;;;;;;;8.98;4.10;;;11.20;99.90;;;;;;5094398;28;20078;-66
2024/01/26 04:24:41;;;;;;;9.00;4.05;;;11.20;99.90;;;;;;5094492;28;20025;-65
2024/01/26 04:27:07;;;;;;;9.35;4.40;;;11.20;99.90;;;;;;5094450;28;20033;-66
2024/01/26 04:29:33;;;;;;;11.98;5.00;;;11.20;99.90;;;;;;5094366;28;20032;-66
2024/01/26 04:31:59;;;;;;;11.27;4.85;;;11.20;99.90;;;;;;5094308;28;20025;-66
2024/01/26 04:34:24;;;;;;;9.52;4.28;;;11.20;99.90;;;;;;5094000;28;20032;-65
2024/01/26 04:36:51;;;;;;;11.95;4.72;;;11.30;99.90;;;;;;5094107;28;20399;-66
2024/01/26 04:39:16;;;;;;;9.88;4.80;;;11.30;99.90;;;;;;5094229;28;20032;-66
2024/01/26 04:41:43;;;;;;;9.75;4.93;;;11.20;99.90;;;;;;5094190;28;20423;-66
2024/01/26 04:44:09;;;;;;;10.73;5.30;;;11.30;99.90;;;;;;5094117;28;20013;-66
2024/01/26 04:46:36;;;;;;;10.73;5.10;;;11.30;99.90;;;;;;5092199;28;20021;-66
2024/01/26 04:49:02;;;;;;;8.77;5.28;;;11.30;99.90;;;;;;5093433;28;20021;-66
2024/01/26 04:51:27;;;;;;;10.30;4.82;;;11.30;99.90;;;;;;5093965;28;20020;-66
2024/01/26 04:53:53;;;;;;;11.35;5.50;;;11.40;99.90;;;;;;5093987;28;20029;-66
2024/01/26 04:56:20;;;;;;;12.05;5.45;;;11.40;99.90;;;;;;5093792;28;20028;-65
2024/01/26 04:58:46;;;;;;;10.02;5.72;;;11.40;99.90;;;;;;5093786;28;20045;-65
2024/01/26 05:01:12;;;;;;;8.98;5.22;;;11.40;99.90;;;;;;5093809;28;20070;-65
2024/01/26 05:03:37;;;;;;;9.98;5.55;;;11.40;99.90;;;;;;5093377;28;20044;-66
2024/01/26 05:06:04;;;;;;;10.95;5.82;;;11.40;99.90;;;;;;5093673;28;20036;-65
2024/01/26 05:08:29;;;;;;;12.23;6.50;;;11.40;99.90;;;;;;5093509;28;20033;-66
2024/01/26 05:10:55;;;;;;;14.40;5.90;;;11.40;99.90;;;;;;5093411;28;20380;-65
2024/01/26 05:13:21;;;;;;;11.00;5.68;;;11.40;99.90;;;;;;5093490;28;20050;-66
2024/01/26 05:15:46;;;;;;;9.85;5.53;;;11.40;99.90;;;;;;5093437;28;20047;-66
2024/01/26 05:18:12;;;;;;;8.90;5.15;;;11.40;99.90;;;;;;5093195;28;20041;-66
2024/01/26 05:20:37;;;;;;;14.07;6.45;;;11.40;99.90;;;;;;5093361;28;20027;-66
2024/01/26 05:23:04;;;;;;;12.25;6.22;;;11.40;99.90;;;;;;5093309;28;20029;-65
2024/01/26 05:25:30;;;;;;;11.48;5.18;;;11.40;99.90;;;;;;5093317;28;20048;-66
2024/01/26 05:27:55;;;;;;;11.85;5.47;;;11.40;99.90;;;;;;5093148;28;20029;-66
2024/01/26 05:30:21;;;;;;;12.10;5.82;;;11.40;99.90;;;;;;5093171;28;20387;-65
2024/01/26 05:32:47;;;;;;;11.00;5.57;;;11.40;99.90;;;;;;5092829;28;20039;-67
2024/01/26 05:35:12;;;;;;;12.00;5.85;;;11.40;99.90;;;;;;5093060;28;20064;-66
2024/01/26 05:37:38;;;;;;;11.23;5.70;;;11.40;99.90;;;;;;5091913;28;20029;-65
2024/01/26 05:40:08;;;;;;;9.73;6.13;;;11.40;99.90;;;;;;5093081;28;20078;-66
2024/01/26 05:42:33;;;;;;;9.95;5.65;;;11.40;99.90;;;;;;5092947;28;20111;-65
2024/01/26 05:45:00;;;;;;;10.77;5.60;;;11.40;99.90;;;;;;5092970;28;20025;-66
2024/01/26 05:47:25;;;;;;;9.65;5.80;;;11.40;99.90;;;;;;5092862;28;20084;-66
2024/01/26 05:49:51;;;;;;;12.30;6.05;;;11.40;99.90;;;;;;5092909;28;20047;-66
2024/01/26 05:52:17;;;;;;;12.60;6.75;;;11.40;99.90;;;;;;5092796;28;20090;-66
2024/01/26 05:54:42;;;;;;;15.32;6.13;;;11.40;99.90;;;;;;5092811;28;20036;-65
2024/01/26 05:57:08;;;;;;;10.65;6.57;;;11.40;99.90;;;;;;5092745;28;20070;-66
2024/01/26 05:59:37;;;;;;;10.68;6.35;;;11.40;99.90;;;;;;5092362;28;20029;-66
2024/01/26 06:02:03;;;;;;;12.50;6.22;;;11.40;99.90;;;;;;5092680;28;20099;-65
2024/01/26 06:04:29;;;;;;;10.85;6.38;;;11.30;99.90;;;;;;5092582;28;20046;-65
2024/01/26 06:06:55;;;;;;;11.80;6.38;;;11.30;99.90;;;;;;5092596;28;20044;-66
2024/01/26 06:09:20;;;;;;;13.45;6.15;;;11.20;99.90;;;;;;5092638;28;20032;-65
2024/01/26 06:11:46;;;;;;;14.18;6.85;;;11.20;99.90;;;;;;5092412;28;20049;-66
2024/01/26 06:14:11;;;;;;;10.95;6.15;;;11.20;99.90;;;;;;5092625;28;20449;-66
2024/01/26 06:16:37;;;;;;;14.38;7.00;;;11.20;99.90;;;;;;5092352;28;20032;-65
2024/01/26 06:19:03;;;;;;;11.75;6.45;;;11.20;99.90;;;;;;5092480;28;20051;-65
2024/01/26 06:21:28;;;;;;;12.45;6.72;;;11.20;99.90;;;;;;5092394;28;20069;-66
2024/01/26 06:23:54;;;;;;;14.43;6.18;;;11.20;99.90;;;;;;5092484;28;20399;-65
2024/01/26 06:26:20;;;;;;;17.17;6.82;;;11.20;99.90;;;;;;5092484;28;20307;-66
2024/01/26 06:28:46;;;;;;;13.60;7.50;;;11.20;99.90;;;;;;5092446;28;20027;-65
2024/01/26 06:31:11;;;;;;;12.23;6.85;;;11.10;99.90;;;;;;5092376;28;20390;-65
2024/01/26 06:33:37;;;;;;;12.80;7.00;;;11.10;99.90;;;;;;5092139;28;20039;-65
2024/01/26 06:36:03;;;;;;;14.68;6.88;;;11.10;99.90;;;;;;5092497;28;20031;-65
2024/01/26 06:38:28;;;;;;;12.38;6.95;;;11.10;99.90;;;;;;5092188;28;20039;-66
2024/01/26 06:40:54;;;;;;;14.80;7.05;;;11.10;99.90;;;;;;5091250;28;20040;-65
2024/01/26 06:43:20;;;;;;;13.32;7.25;;;11.10;99.90;;;;;;5092183;28;20032;-66
2024/01/26 06:45:46;;;;;;;14.48;6.93;;;11.00;99.90;;;;;;5092105;28;20017;-66
2024/01/26 06:48:11;;;;;;;12.30;6.35;;;11.10;99.90;;;;;;5080490;28;20061;-66
2024/01/26 06:50:38;;;;;;;14.43;7.85;;;11.10;99.90;;;;;;5052080;28;20729;-65
2024/01/26 06:53:04;;;;;;;14.18;7.25;;;11.10;99.90;;;;;;5052087;28;20049;-65
2024/01/26 06:55:29;;;;;;;14.27;7.35;;;11.10;99.90;;;;;;5051024;28;20062;-65
2024/01/26 06:57:56;;;;;;;13.98;7.00;;;11.00;99.90;;;;;;5052029;28;20057;-65
2024/01/26 07:00:22;;;;;;;12.45;6.30;;;11.00;99.90;;;;;;5052005;28;20018;-66
2024/01/26 07:02:47;;;;;;;15.07;7.20;;;11.00;99.90;;;;;;5051925;28;20077;-65
2024/01/26 07:05:13;;;;;;;13.80;7.20;;;11.10;99.90;;;;;;5052101;28;20464;-65
2024/01/26 07:07:39;;;;;;;13.63;7.47;;;11.10;99.90;;;;;;5051985;28;20085;-66
2024/01/26 07:10:05;;;;;;;14.63;7.20;;;11.10;99.90;;;;;;5052140;28;20033;-65
2024/01/26 07:12:31;;;;;;;16.98;7.47;;;11.10;99.90;;;;;;5055785;28;20037;-65
2024/01/26 07:14:56;;;;;;;14.95;6.57;;;11.10;99.90;;;;;;5055688;28;20053;-65
2024/01/26 07:17:22;;;;;;;14.10;7.30;;;11.10;99.90;;;;;;5055508;28;20093;-65
2024/01/26 07:19:47;;;;;;;13.93;6.93;;;11.10;99.90;;;;;;5055540;28;20025;-65
2024/01/26 07:22:13;;;;;;;12.77;6.50;;;11.20;99.90;;;;;;5055578;28;20030;-67
2024/01/26 07:24:39;;;;;;;12.80;7.05;;;11.20;99.90;;;;;;5055609;28;20037;-64
2024/01/26 07:27:05;;;;;;;12.90;6.90;;;11.20;99.90;;;;;;5055463;28;20030;-66
2024/01/26 07:29:33;;;;;;;11.70;6.95;;;11.20;99.90;;;;;;5068359;28;20025;-66
2024/01/26 07:31:59;;;;;;;12.95;6.55;;;11.20;99.90;;;;;;5095493;28;20021;-65
2024/01/26 07:34:24;;;;;;;12.07;6.75;;;11.20;99.90;;;;;;5095289;28;20735;-65
2024/01/26 07:36:50;;;;;;;12.20;6.80;;;11.20;99.90;;;;;;5095199;28;20043;-67
2024/01/26 11:52:21;;;;;;;2.75;1.15;;;10.60;99.90;;;;;;5041583;26;20055;-65
2024/01/26 11:54:47;;;;;;;6.43;1.30;;;10.60;99.90;;;;;;5115393;28;20028;-66
2024/01/26 11:57:13;;;;;;;3.58;0.70;;;10.60;99.90;;;;;;5114735;28;20032;-66
2024/01/26 11:59:39;;;;;;;3.85;0.90;;;10.40;99.90;;;;;;5097608;28;20035;-66
2024/01/26 12:02:05;;;;;;;3.47;0.50;;;10.40;99.90;;;;;;5115354;28;20025;-66
2024/01/26 12:04:30;;;;;;;4.90;0.82;;;10.40;99.90;;;;;;5115288;28;20091;-69
2024/01/26 12:06:56;;;;;;;3.97;0.68;;;10.30;99.90;;;;;;5115230;28;20031;-66
2024/01/26 12:09:22;;;;;;;4.70;0.70;;;10.20;99.90;;;;;;5097499;28;20111;-66
2024/01/26 12:11:48;;;;;;;4.35;0.95;;;10.20;99.90;;;;;;5080660;28;20054;-65
2024/01/26 12:14:13;;;;;;;6.13;1.15;;;10.20;99.90;;;;;;5115091;28;20051;-66
2024/01/26 12:16:40;;;;;;;5.00;0.90;;;10.30;99.90;;;;;;5115106;28;20055;-65
2024/01/26 12:19:07;;;;;;;10.90;1.63;;;10.40;99.90;;;;;;5096136;28;20032;-66
2024/01/26 12:21:32;;;;;;;6.60;0.98;;;10.50;99.90;;;;;;5114403;28;20024;-67
2024/01/26 12:23:58;;;;;;;7.80;1.42;;;10.50;99.90;;;;;;5114654;28;20031;-65
2024/01/26 12:26:25;;;;;;;7.72;0.90;;;10.50;99.90;;;;;;5114697;28;20528;-65
2024/01/26 12:28:50;;;;;;;3.42;0.70;;;10.50;99.90;;;;;;5114532;28;20047;-67
2024/01/26 12:31:17;;;;;;;4.63;0.70;;;10.50;99.90;;;;;;5114656;28;20020;-66
2024/01/26 12:33:46;;;;;;;2.83;0.75;;;10.40;99.90;;;;;;5114570;28;20050;-67
2024/01/26 12:36:12;;;;;;;6.95;0.98;;;10.50;99.90;;;;;;5114266;28;20031;-66
2024/01/26 12:38:38;;;;;;;7.43;1.10;;;10.40;99.90;;;;;;5114224;28;20050;-67
2024/01/26 12:41:04;;;;;;;5.35;1.05;;;10.40;99.90;;;;;;5096493;28;20494;-66
2024/01/26 12:43:30;;;;;;;7.45;1.10;;;10.30;99.90;;;;;;5096400;28;20024;-69
2024/01/26 12:45:55;;;;;;;4.15;0.90;;;10.30;99.90;;;;;;5079824;28;20028;-68
2024/01/26 12:48:21;;;;;;;4.05;0.70;;;10.30;99.90;;;;;;5096262;28;20111;-68
2024/01/26 12:50:47;;;;;;;6.18;1.38;;;10.30;99.90;;;;;;5114016;28;20103;-67
2024/01/26 12:53:13;;;;;;;4.80;1.00;;;10.30;99.90;;;;;;5113592;28;20525;-67
2024/01/26 12:55:39;;;;;;;10.90;1.60;;;10.30;99.90;;;;;;5114143;28;20020;-67
2024/01/26 12:58:05;;;;;;;3.38;1.33;;;10.30;99.90;;;;;;5113961;28;20128;-67
2024/01/26 13:00:30;;;;;;;7.57;1.45;;;10.30;99.90;;;;;;5096142;28;20028;-67
2024/01/26 13:02:57;;;;;;;7.25;1.10;;;10.20;99.90;;;;;;5113768;28;20026;-68
2024/01/26 13:05:23;;;;;;;7.88;1.05;;;10.20;99.90;;;;;;5095955;28;20024;-68
2024/01/26 13:07:48;;;;;;;5.57;1.10;;;10.20;99.90;;;;;;5112960;28;20103;-69
2024/01/26 13:10:14;;;;;;;6.55;1.15;;;10.20;99.90;;;;;;5113708;28;20023;-67
2024/01/26 13:12:40;;;;;;;11.38;1.42;;;10.20;99.90;;;;;;5113659;28;20032;-69
2024/01/26 13:15:07;;;;;;;4.05;1.20;;;10.20;99.90;;;;;;5113379;28;20024;-68
2024/01/26 13:17:32;;;;;;;6.85;0.68;;;10.10;99.90;;;;;;5113565;28;20020;-67
2024/01/26 13:19:58;;;;;;;3.22;1.55;;;10.10;99.90;;;;;;5113256;28;20020;-67
2024/01/26 13:22:23;;;;;;;8.77;0.77;;;10.10;99.90;;;;;;5095699;28;20032;-66
2024/01/26 13:24:49;;;;;;;7.95;1.63;;;10.10;99.90;;;;;;5078773;28;20032;-68
2024/01/26 13:27:15;;;;;;;8.30;1.08;;;10.00;99.90;;;;;;5095739;28;20043;-67
2024/01/26 13:29:47;;;;;;;4.38;0.90;;;10.00;99.90;;;;;;5151143;27;20706;-69
2024/01/26 13:32:13;;;;;;;8.60;0.90;;;10.00;99.90;;;;;;5132975;28;20058;-69
2024/01/26 13:34:40;;;;;;;5.10;0.80;;;10.00;99.90;;;;;;5150946;28;20048;-69
2024/01/26 13:37:05;;;;;;;4.00;0.85;;;9.90;99.90;;;;;;5150002;28;20016;-68
2024/01/26 13:39:31;;;;;;;6.95;1.08;;;9.90;99.90;;;;;;5132748;28;20023;-68
2024/01/26 13:41:57;;;;;;;4.70;0.73;;;9.90;99.90;;;;;;5150933;28;20079;-68
2024/01/26 13:44:22;;;;;;;5.60;1.13;;;9.80;99.90;;;;;;5150915;28;20020;-68
2024/01/26 13:46:48;;;;;;;6.05;1.10;;;9.80;99.90;;;;;;5132623;28;20035;-67
2024/01/26 13:49:13;;;;;;;6.40;0.90;;;9.70;99.90;;;;;;5132341;28;20031;-66
2024/01/26 13:51:39;;;;;;;4.55;0.95;;;9.70;99.90;;;;;;5150773;28;20031;-66
2024/01/26 13:54:05;;;;;;;4.80;1.33;;;9.70;99.90;;;;;;5132582;28;20020;-65
2024/01/26 13:56:30;;;;;;;3.22;0.50;;;9.80;99.90;;;;;;5150613;28;20046;-66
2024/01/26 13:58:56;;;;;;;6.72;1.52;;;9.80;99.90;;;;;;5150143;28;20023;-67
2024/01/26 14:01:23;;;;;;;6.38;1.17;;;9.60;99.90;;;;;;5132288;28;20040;-66
2024/01/26 14:03:50;;;;;;;4.93;1.10;;;9.60;99.90;;;;;;5150507;28;20031;-65
2024/01/26 14:06:16;;;;;;;8.02;0.90;;;9.60;99.90;;;;;;5150437;28;20023;-66
2024/01/26 14:08:41;;;;;;;10.43;1.70;;;9.70;99.90;;;;;;5150185;28;20035;-68
2024/01/26 14:11:07;;;;;;;5.45;1.33;;;9.60;99.90;;;;;;5132132;28;20030;-67
2024/01/26 14:13:32;;;;;;;7.13;1.50;;;9.70;99.90;;;;;;5149138;28;20020;-68
2024/01/26 14:15:59;;;;;;;6.00;0.98;;;9.70;99.90;;;;;;5150214;28;20027;-67
2024/01/26 14:18:25;;;;;;;5.10;1.13;;;9.70;99.90;;;;;;5149998;28;20019;-68
2024/01/26 14:20:53;;;;;;;8.13;1.35;;;9.70;99.90;;;;;;5149878;28;20045;-67
2024/01/26 14:23:22;;;;;;;9.40;1.20;;;9.70;99.90;;;;;;5150200;28;20026;-66
2024/01/26 14:25:50;;;;;;;5.88;0.77;;;9.70;99.90;;;;;;5150088;28;20031;-65
2024/01/26 14:28:16;;;;;;;8.77;1.00;;;9.70;99.90;;;;;;5131742;28;20044;-66
2024/01/26 14:30:42;;;;;;;4.05;1.15;;;9.70;99.90;;;;;;5149611;28;20039;-67
2024/01/26 14:33:07;;;;;;;6.88;1.20;;;9.70;99.90;;;;;;5149741;28;20032;-64
2024/01/26 14:35:33;;;;;;;7.30;1.17;;;9.70;99.90;;;;;;5149769;28;20079;-67
2024/01/26 14:37:59;;;;;;;4.60;1.05;;;9.70;99.90;;;;;;5149801;28;20031;-67
2024/01/26 14:40:24;;;;;;;8.52;0.80;;;9.60;99.90;;;;;;5140319;28;20041;-65
2024/01/26 14:42:50;;;;;;;9.35;1.25;;;9.60;99.90;;;;;;5134900;28;20532;-66
2024/01/26 14:45:16;;;;;;;8.85;1.23;;;9.60;99.90;;;;;;5135974;28;20035;-66
2024/01/26 14:47:44;;;;;;;8.07;1.45;;;9.60;99.90;;;;;;5101308;28;20359;-66
2024/01/26 14:50:10;;;;;;;7.60;1.50;;;9.60;99.90;;;;;;5135932;28;20020;-66
2024/01/26 14:52:38;;;;;;;6.93;0.90;;;9.50;99.90;;;;;;5134736;28;20073;-66
2024/01/26 14:55:08;;;;;;;5.13;1.17;;;9.50;99.90;;;;;;5135560;28;20072;-65
2024/01/26 14:57:38;;;;;;;11.95;1.50;;;9.50;99.90;;;;;;5135535;28;20026;-66
2024/01/26 15:00:07;;;;;;;8.25;1.20;;;9.40;99.90;;;;;;5135686;28;20486;-66
2024/01/26 15:02:36;;;;;;;6.75;1.33;;;9.40;99.90;;;;;;5135609;28;20035;-65
2024/01/26 15:05:07;;;;;;;6.45;1.27;;;9.40;99.90;;;;;;5135354;28;20028;-68
2024/01/26 15:07:33;;;;;;;15.85;1.58;;;9.40;99.90;;;;;;5135530;28;20016;-68
2024/01/26 15:09:59;;;;;;;5.90;1.42;;;9.40;99.90;;;;;;5134625;28;20023;-65
2024/01/26 15:12:25;;;;;;;4.95;1.20;;;9.40;99.90;;;;;;5135245;28;20030;-66
2024/01/26 15:14:51;;;;;;;9.10;1.50;;;9.40;99.90;;;;;;5134189;28;20047;-65
2024/01/26 15:17:17;;;;;;;6.88;1.00;;;9.40;99.90;;;;;;5135371;28;20027;-66
2024/01/26 15:19:43;;;;;;;5.55;1.00;;;9.40;99.90;;;;;;5135098;28;20446;-66
2024/01/26 15:22:10;;;;;;;7.93;1.48;;;9.40;99.90;;;;;;5135210;28;20035;-64
2024/01/26 15:24:37;;;;;;;10.45;1.40;;;9.40;99.90;;;;;;5134076;28;20028;-65
2024/01/26 15:27:03;;;;;;;9.15;0.90;;;9.30;99.90;;;;;;5134001;28;20030;-66
2024/01/26 15:29:29;;;;;;;13.02;1.20;;;9.30;99.90;;;;;;5133754;28;20092;-66
2024/01/26 15:31:55;;;;;;;6.13;1.10;;;9.20;99.90;;;;;;5134288;28;20040;-65
2024/01/26 15:34:21;;;;;;;7.95;2.03;;;9.30;99.90;;;;;;5134948;28;20023;-65
2024/01/26 15:36:47;;;;;;;5.95;1.25;;;9.20;99.90;;;;;;5134008;28;20069;-68
2024/01/26 15:39:14;;;;;;;6.85;1.20;;;9.20;99.90;;;;;;5134698;28;20096;-68
2024/01/26 15:41:39;;;;;;;7.75;1.08;;;9.10;99.90;;;;;;5134819;28;20024;-68
2024/01/26 15:44:05;;;;;;;7.88;1.17;;;9.10;99.90;;;;;;5133919;28;20016;-67
2024/01/26 15:46:31;;;;;;;6.05;1.38;;;9.00;99.90;;;;;;5134718;28;20032;-65
2024/01/26 15:48:56;;;;;;;5.57;1.45;;;9.00;99.90;;;;;;5134222;28;20034;-66
2024/01/26 15:51:22;;;;;;;8.07;1.30;;;9.00;99.90;;;;;;5132776;28;20033;-65
2024/01/26 15:53:48;;;;;;;8.27;0.80;;;8.90;99.90;;;;;;5134500;28;20019;-66
2024/01/26 15:56:13;;;;;;;8.48;1.00;;;8.90;99.90;;;;;;5134607;28;20020;-65
2024/01/26 15:58:39;;;;;;;4.55;1.02;;;8.90;99.90;;;;;;5134101;28;20035;-66
2024/01/26 16:01:04;;;;;;;14.15;1.55;;;8.90;99.90;;;;;;5116794;28;20035;-65
2024/01/26 16:03:30;;;;;;;7.97;1.35;;;8.90;99.90;;;;;;5134522;28;20035;-66
2024/01/26 16:05:56;;;;;;;10.57;1.80;;;8.90;99.90;;;;;;5133551;28;20024;-66
2024/01/26 16:08:21;;;;;;;10.23;1.10;;;8.80;99.90;;;;;;5134389;28;20423;-67
2024/01/26 16:10:47;;;;;;;7.40;1.00;;;8.70;99.90;;;;;;5116655;28;20031;-66
2024/01/26 16:13:13;;;;;;;8.52;1.20;;;8.70;99.90;;;;;;5116437;28;20024;-65
2024/01/26 16:15:38;;;;;;;7.60;1.05;;;8.70;99.90;;;;;;5134520;28;20031;-67
2024/01/26 16:18:05;;;;;;;4.38;0.88;;;8.60;99.90;;;;;;5134175;28;20027;-68
2024/01/26 16:20:31;;;;;;;9.30;1.42;;;8.50;99.90;;;;;;5134303;28;20027;-67
2024/01/26 16:22:57;;;;;;;8.10;1.05;;;8.50;99.90;;;;;;5134395;28;20088;-67
2024/01/26 16:25:23;;;;;;;2.65;0.95;;;8.50;99.90;;;;;;5134318;28;20032;-68
2024/01/26 16:27:49;;;;;;;10.90;1.45;;;8.40;99.90;;;;;;5134017;28;20457;-67
2024/01/26 16:30:15;;;;;;;6.18;0.90;;;8.30;99.90;;;;;;5133767;28;20034;-66
2024/01/26 16:32:40;;;;;;;4.78;1.20;;;8.30;99.90;;;;;;5133305;28;20043;-67
2024/01/26 16:35:07;;;;;;;8.75;1.55;;;8.20;99.90;;;;;;5133214;28;20020;-67
2024/01/26 16:37:33;;;;;;;9.80;1.33;;;8.20;99.90;;;;;;5134103;28;20022;-67
2024/01/26 16:39:59;;;;;;;10.55;1.58;;;8.10;99.90;;;;;;5134005;28;20385;-66
2024/01/26 16:42:24;;;;;;;18.63;2.17;;;8.20;99.90;;;;;;5133931;28;20035;-66
2024/01/26 16:44:50;;;;;;;8.93;1.45;;;8.10;99.90;;;;;;5133919;28;20024;-66
2024/01/26 16:47:16;;;;;;;8.68;1.23;;;8.10;99.90;;;;;;5133790;28;20031;-66
2024/01/26 16:49:42;;;;;;;11.48;1.95;;;8.10;99.90;;;;;;5133405;28;20027;-65